Huvudsida
METAR-TAF:

METAR-TAF

Flygplatser :

Svalbards flygplats. Longyear

Longyearbyen, Norge

latitud: 78-15N, longitud: 015-28E, höjd: 2 m

Aktuellt väderrapport

Denna rapport gjordes för 20 minuter sedan, klockan 21:50 UTC
Vind 15 kt från sydost
Temperatur 9°C
Fuktighet 40%
Tryck 1014 hPa
Sikt 10 km eller mer
Inga moln under 1 500 m eller inga cumulonimbus

METAR: ENSB 202150Z 13015KT CAVOK 09/M04 Q1014 RMK WIND 1400FT 11017KT

Tid: 00:10 (22:10 UTC)

Väderprognos

Denna rapport gjordes för 5 timmar och 10 minuter sedan, klockan 17:00 UTC
Prognos gäller från 20 kl. 18 UTC till 21 kl. 18 UTC
Vind 9 kt från sydost
Sikt 10 km eller mer
Få moln på en höjd av 3000 ft
Brutna moln på en höjd av 6000 ft
Blir
från 21 kl. 15 UTC till 21 kl. 17 UTC
Vind 10 kt från väst

TAF: ENSB 201700Z 2018/2118 14009KT 9999 FEW030 BKN060 BECMG 2115/2117 27010KT

Aktuella väderrapporter och prognoser från 4000 flygplatser (METAR- och TAF-rapporter).

De tillgängliga stationerna syns som gula och röda prickar på kartan.

För musen över prickarna för att se namnen på stationerna.

Klicka sedan för att få väderrapporter och prognoser.

För att ändra kartan: Klicka på de gröna knapparna med ett svart kors på för att zooma in; den gröna knappen med ett streck på för att zooma ut; eller på de gröna pilarna för angränsande kartor.


METAR-TAF: